Ocean Majesty — CQSC — position and weather

sailwx.info

Track history (hours):
 
Tides and Currents Weather Stations Pressure Air Temp Water Temp Dewpoint Dewpoint Depression Visibility Wind Speed Wind Dir Waves Ship Positions

Ocean Majesty

Last reported at 2014-Aug-22 07:29 UTC. Time now 2014-Aug-22 19:39 UTC.
Position N 52°38' W 005°52'.

Length 136 m; draft 6.3 m.

Type: Passenger vessel. MMSI: 255717000.

Date/timePositionNaut miles runAvg speedWind from/ knotsBaromVisibWave heightAir tempDewpointWater temp
2014-Aug-22 07:29N 52°38' W 005°52'1515.6
2014-Aug-22 06:34N 52°24' W 005°50'1716.7
2014-Aug-22 05:34N 52°07' W 005°49'23910.8
2014-Aug-21 07:27N 50°32' E 000°02'1415.4
2014-Aug-21 06:31N 50°36' E 000°24'1515.2
2014-Aug-21 05:33N 50°43' E 000°44'1616.0
2014-Aug-21 04:33N 50°52' E 001°05'1717.2
2014-Aug-21 03:34N 51°04' E 001°26'1616.2
2014-Aug-21 02:34N 51°18' E 001°37'1313.2
2014-Aug-21 01:34N 51°28' E 001°23'1413.9
2014-Aug-21 00:33N 51°29' E 001°01'1616.0
2014-Aug-20 23:33N 51°30' E 000°35'1010.0
2014-Aug-20 22:34N 51°28' E 000°19'1010.0
2014-Aug-20 21:33N 51°30' E 000°03'5 0.2
2014-Aug-19 23:23N 51°30' W 000°05'0 0.0
2014-Aug-19 20:05N 51°30' W 000°05'3 2.1
2014-Aug-19 18:33N 51°29' W 000°00'7 7.1
2014-Aug-19 17:33N 51°29' E 000°11'9 9.3
2014-Aug-19 16:34N 51°27' E 000°26'1110.7
2014-Aug-19 15:33N 51°30' E 000°42'1312.5
2014-Aug-19 14:33N 51°30' E 001°03'1313.3
2014-Aug-19 13:33N 51°28' E 001°24'7 6.7
2014-Aug-19 12:34N 51°28' E 001°34'1312.4
2014-Aug-19 11:33N 51°34' E 001°52'1313.2
2014-Aug-19 10:33N 51°41' E 002°10'10412.6
2014-Aug-19 02:21N 52°59' E 004°01'3013.6
2014-Aug-19 00:07N 53°23' E 004°33'813.1
2014-Aug-18 23:32N 53°29' E 004°41'1313.0
2014-Aug-18 22:33N 53°33' E 005°01'1313.3
2014-Aug-18 21:34N 53°38' E 005°22'1413.9
2014-Aug-18 20:33N 53°43' E 005°44'6013.8
2014-Aug-18 16:11N 53°59' E 007°23'812.5
2014-Aug-18 15:33N 54°01' E 007°36'1312.9
2014-Aug-18 14:33N 54°02' E 007°57'1313.2
2014-Aug-18 13:33N 54°00' E 008°20'1212.4
2014-Aug-18 12:33N 53°56' E 008°40'1313.2
2014-Aug-18 11:33N 53°51' E 009°00'1110.5
2014-Aug-18 10:34N 53°52' E 009°18'1413.9
2014-Aug-18 09:34N 53°40' E 009°31'1212.3
2014-Aug-18 08:33N 53°33' E 009°48'7 6.9
2014-Aug-18 07:33N 53°32' E 009°60'0 0.0
2014-Aug-18 06:33N 53°32' E 009°60'0 0.0
2014-Aug-18 05:33N 53°32' E 009°60'0 0.0
2014-Aug-18 04:33N 53°32' E 009°60'0 0.0
2014-Aug-18 03:33N 53°32' E 009°60'0 0.0
2014-Aug-18 02:30N 53°32' E 009°60'0 0.0
2014-Aug-18 01:27N 53°32' E 009°60'0 0.0
2014-Aug-18 00:30N 53°32' E 009°60'0 0.0
2014-Aug-17 18:30N 53°32' E 009°60'0 0.0
2014-Aug-17 17:33N 53°32' E 009°60'0 0.0
2014-Aug-17 16:33N 53°32' E 009°60'0 0.0
2014-Aug-17 15:30N 53°32' E 009°60'0 0.0
2014-Aug-17 14:33N 53°32' E 009°60'0 0.0
2014-Aug-17 13:30N 53°32' E 009°60'0 0.0
2014-Aug-17 11:30N 53°32' E 009°60'0 0.0
2014-Aug-17 10:33N 53°32' E 009°60'0 0.0
2014-Aug-17 09:33N 53°32' E 009°60'0 0.0
2014-Aug-17 08:30N 53°32' E 009°60'0 0.0
2014-Aug-17 07:33N 53°32' E 009°60'0 0.0
2014-Aug-17 06:30N 53°32' E 009°60'0 0.2
2014-Aug-17 05:33N 53°32' E 009°60'5 5.3
2014-Aug-17 04:33N 53°33' E 009°51'1111.3
2014-Aug-17 03:33N 53°37' E 009°33'1212.5
2014-Aug-17 02:33N 53°48' E 009°23'1110.8
2014-Aug-17 01:33N 53°53' E 009°06'1111.2
2014-Aug-17 00:33N 53°50' E 008°48'1210.5
2014-Aug-16 23:26N 53°58' E 008°32'1010.7
2014-Aug-16 22:32N 53°60' E 008°16'1212.9
2014-Aug-16 21:33N 54°02' E 007°55'1515.0
2014-Aug-16 20:33N 54°12' E 007°36'1515.0
2014-Aug-16 19:33N 54°24' E 007°21'1515.0
2014-Aug-16 18:33N 54°38' E 007°14'1515.0
2014-Aug-16 17:32N 54°53' E 007°06'1515.0
2014-Aug-16 16:34N 55°07' E 006°59'1515.2
2014-Aug-16 15:33N 55°22' E 006°51'16615.9
2014-Aug-16 05:07N 58°00' E 005°22'14413.6
2014-Aug-15 18:32N 60°24' E 005°19'0 0.0
2014-Aug-15 17:32N 60°24' E 005°19'0 0.0
2014-Aug-15 16:31N 60°24' E 005°19'0 0.0
2014-Aug-15 15:32N 60°24' E 005°19'0 0.0
2014-Aug-15 14:32N 60°24' E 005°19'0 0.0
2014-Aug-15 13:32N 60°24' E 005°19'0 0.0
2014-Aug-15 12:32N 60°24' E 005°19'0 0.0
2014-Aug-15 11:31N 60°24' E 005°19'0 0.0
2014-Aug-15 10:32N 60°24' E 005°19'0 0.0
2014-Aug-15 09:32N 60°24' E 005°19'0 0.0
2014-Aug-15 08:33N 60°24' E 005°19'7 7.1
2014-Aug-15 07:33N 60°25' E 005°04'  
2014-Aug-12 21:08N 60°28' E 005°01'1312.9
2014-Aug-12 20:09N 60°16' E 005°10'4913.0
2014-Aug-12 16:22N 59°27' E 005°13'1312.9
2014-Aug-12 15:23N 59°15' E 005°21'1113.0
2014-Aug-12 14:33N 59°04' E 005°21'1616.1
2014-Aug-12 13:33N 58°48' E 005°20'1615.8
2014-Aug-12 12:33N 58°33' E 005°31'1616.0
2014-Aug-12 11:33N 58°21' E 005°51'1615.9
2014-Aug-12 10:33N 58°10' E 006°14'  
Track history (hours):
 
Tides and Currents Weather Stations Pressure Air Temp Water Temp Dewpoint Dewpoint Depression Visibility Wind Speed Wind Dir Waves Ship Positions

Ocean Majesty

Last reported at 2014-Aug-22 07:29 UTC. Time now 2014-Aug-22 19:39 UTC.
Position N 52°38' W 005°52'.

Length 136 m; draft 6.3 m.

Type: Passenger vessel. MMSI: 255717000.

Date/timePositionNaut miles runAvg speedWind from/ knotsBaromVisibWave heightAir tempDewpointWater temp
2014-Aug-22 07:29N 52°38' W 005°52'1515.6
2014-Aug-22 06:34N 52°24' W 005°50'1716.7
2014-Aug-22 05:34N 52°07' W 005°49'23910.8
2014-Aug-21 07:27N 50°32' E 000°02'1415.4
2014-Aug-21 06:31N 50°36' E 000°24'1515.2
2014-Aug-21 05:33N 50°43' E 000°44'1616.0
2014-Aug-21 04:33N 50°52' E 001°05'1717.2
2014-Aug-21 03:34N 51°04' E 001°26'1616.2
2014-Aug-21 02:34N 51°18' E 001°37'1313.2
2014-Aug-21 01:34N 51°28' E 001°23'1413.9
2014-Aug-21 00:33N 51°29' E 001°01'1616.0
2014-Aug-20 23:33N 51°30' E 000°35'1010.0
2014-Aug-20 22:34N 51°28' E 000°19'1010.0
2014-Aug-20 21:33N 51°30' E 000°03'5 0.2
2014-Aug-19 23:23N 51°30' W 000°05'0 0.0
2014-Aug-19 20:05N 51°30' W 000°05'3 2.1
2014-Aug-19 18:33N 51°29' W 000°00'7 7.1
2014-Aug-19 17:33N 51°29' E 000°11'9 9.3
2014-Aug-19 16:34N 51°27' E 000°26'1110.7
2014-Aug-19 15:33N 51°30' E 000°42'1312.5
2014-Aug-19 14:33N 51°30' E 001°03'1313.3
2014-Aug-19 13:33N 51°28' E 001°24'7 6.7
2014-Aug-19 12:34N 51°28' E 001°34'1312.4
2014-Aug-19 11:33N 51°34' E 001°52'1313.2
2014-Aug-19 10:33N 51°41' E 002°10'10412.6
2014-Aug-19 02:21N 52°59' E 004°01'3013.6
2014-Aug-19 00:07N 53°23' E 004°33'813.1
2014-Aug-18 23:32N 53°29' E 004°41'1313.0
2014-Aug-18 22:33N 53°33' E 005°01'1313.3
2014-Aug-18 21:34N 53°38' E 005°22'1413.9
2014-Aug-18 20:33N 53°43' E 005°44'6013.8
2014-Aug-18 16:11N 53°59' E 007°23'812.5
2014-Aug-18 15:33N 54°01' E 007°36'1312.9
2014-Aug-18 14:33N 54°02' E 007°57'1313.2
2014-Aug-18 13:33N 54°00' E 008°20'1212.4
2014-Aug-18 12:33N 53°56' E 008°40'1313.2
2014-Aug-18 11:33N 53°51' E 009°00'1110.5
2014-Aug-18 10:34N 53°52' E 009°18'1413.9
2014-Aug-18 09:34N 53°40' E 009°31'1212.3
2014-Aug-18 08:33N 53°33' E 009°48'7 6.9
2014-Aug-18 07:33N 53°32' E 009°60'0 0.0
2014-Aug-18 06:33N 53°32' E 009°60'0 0.0
2014-Aug-18 05:33N 53°32' E 009°60'0 0.0
2014-Aug-18 04:33N 53°32' E 009°60'0 0.0
2014-Aug-18 03:33N 53°32' E 009°60'0 0.0
2014-Aug-18 02:30N 53°32' E 009°60'0 0.0
2014-Aug-18 01:27N 53°32' E 009°60'0 0.0
2014-Aug-18 00:30N 53°32' E 009°60'0 0.0
2014-Aug-17 18:30N 53°32' E 009°60'0 0.0
2014-Aug-17 17:33N 53°32' E 009°60'0 0.0
2014-Aug-17 16:33N 53°32' E 009°60'0 0.0
2014-Aug-17 15:30N 53°32' E 009°60'0 0.0
2014-Aug-17 14:33N 53°32' E 009°60'0 0.0
2014-Aug-17 13:30N 53°32' E 009°60'0 0.0
2014-Aug-17 11:30N 53°32' E 009°60'0 0.0
2014-Aug-17 10:33N 53°32' E 009°60'0 0.0
2014-Aug-17 09:33N 53°32' E 009°60'0 0.0
2014-Aug-17 08:30N 53°32' E 009°60'0 0.0
2014-Aug-17 07:33N 53°32' E 009°60'0 0.0
2014-Aug-17 06:30N 53°32' E 009°60'0 0.2
2014-Aug-17 05:33N 53°32' E 009°60'5 5.3
2014-Aug-17 04:33N 53°33' E 009°51'1111.3
2014-Aug-17 03:33N 53°37' E 009°33'1212.5
2014-Aug-17 02:33N 53°48' E 009°23'1110.8
2014-Aug-17 01:33N 53°53' E 009°06'1111.2
2014-Aug-17 00:33N 53°50' E 008°48'1210.5
2014-Aug-16 23:26N 53°58' E 008°32'1010.7
2014-Aug-16 22:32N 53°60' E 008°16'1212.9
2014-Aug-16 21:33N 54°02' E 007°55'1515.0
2014-Aug-16 20:33N 54°12' E 007°36'1515.0
2014-Aug-16 19:33N 54°24' E 007°21'1515.0
2014-Aug-16 18:33N 54°38' E 007°14'1515.0
2014-Aug-16 17:32N 54°53' E 007°06'1515.0
2014-Aug-16 16:34N 55°07' E 006°59'1515.2
2014-Aug-16 15:33N 55°22' E 006°51'16615.9
2014-Aug-16 05:07N 58°00' E 005°22'14413.6
2014-Aug-15 18:32N 60°24' E 005°19'0 0.0
2014-Aug-15 17:32N 60°24' E 005°19'0 0.0
2014-Aug-15 16:31N 60°24' E 005°19'0 0.0
2014-Aug-15 15:32N 60°24' E 005°19'0 0.0
2014-Aug-15 14:32N 60°24' E 005°19'0 0.0
2014-Aug-15 13:32N 60°24' E 005°19'0 0.0
2014-Aug-15 12:32N 60°24' E 005°19'0 0.0
2014-Aug-15 11:31N 60°24' E 005°19'0 0.0
2014-Aug-15 10:32N 60°24' E 005°19'0 0.0
2014-Aug-15 09:32N 60°24' E 005°19'0 0.0
2014-Aug-15 08:33N 60°24' E 005°19'7 7.1
2014-Aug-15 07:33N 60°25' E 005°04'  
2014-Aug-12 21:08N 60°28' E 005°01'1312.9
2014-Aug-12 20:09N 60°16' E 005°10'4913.0
2014-Aug-12 16:22N 59°27' E 005°13'1312.9
2014-Aug-12 15:23N 59°15' E 005°21'1113.0
2014-Aug-12 14:33N 59°04' E 005°21'1616.1
2014-Aug-12 13:33N 58°48' E 005°20'1615.8
2014-Aug-12 12:33N 58°33' E 005°31'1616.0
2014-Aug-12 11:33N 58°21' E 005°51'1615.9
2014-Aug-12 10:33N 58°10' E 006°14'  

Dump ship's entire track history